createdAt,value
2022-11-16T00:02:13.254Z,7.25
2022-11-16T00:04:39.935Z,6.88
2022-11-16T00:07:06.479Z,6.63
2022-11-16T00:09:33.259Z,7.07
2022-11-16T00:12:02.069Z,7.30
2022-11-16T00:14:30.762Z,6.25
2022-11-16T00:16:58.469Z,7.18
2022-11-16T00:19:25.911Z,7.43
2022-11-16T00:21:53.199Z,7.70
2022-11-16T00:24:21.483Z,6.50
2022-11-16T00:26:48.609Z,7.25
2022-11-16T00:29:17.195Z,7.30
2022-11-16T00:31:44.795Z,6.45
2022-11-16T00:34:11.356Z,8.40
2022-11-16T00:36:37.704Z,5.43
2022-11-16T00:39:04.149Z,5.15
2022-11-16T00:41:30.523Z,6.85
2022-11-16T00:43:56.909Z,10.05
2022-11-16T00:46:23.273Z,6.15
2022-11-16T00:48:49.650Z,5.72
2022-11-16T00:51:16.048Z,5.82
2022-11-16T00:53:42.537Z,9.20
2022-11-16T00:56:08.850Z,7.85
2022-11-16T00:58:41.500Z,6.25
2022-11-16T01:01:11.563Z,10.80
2022-11-16T01:03:38.507Z,8.52
2022-11-16T01:06:11.723Z,8.70
2022-11-16T01:08:39.680Z,7.78
2022-11-16T01:11:25.376Z,7.57
2022-11-16T01:13:52.217Z,7.18
2022-11-16T01:16:21.461Z,7.20
2022-11-16T01:18:49.758Z,7.43
2022-11-16T01:21:16.797Z,6.45
2022-11-16T01:23:43.806Z,6.40
2022-11-16T01:26:10.344Z,6.50
2022-11-16T01:28:37.751Z,5.90
2022-11-16T01:31:04.340Z,7.18
2022-11-16T01:33:33.976Z,6.72
2022-11-16T01:36:00.727Z,7.85
2022-11-16T01:38:29.787Z,8.05
2022-11-16T01:40:56.894Z,6.25
2022-11-16T01:43:27.137Z,6.35
2022-11-16T01:46:00.106Z,6.68
2022-11-16T01:48:30.010Z,8.25
2022-11-16T01:50:57.711Z,6.63
2022-11-16T01:53:24.798Z,8.82
2022-11-16T01:55:54.951Z,6.70
2022-11-16T01:58:37.092Z,9.32
2022-11-16T02:01:14.792Z,9.02
2022-11-16T02:03:48.944Z,7.95
2022-11-16T02:06:28.857Z,6.07
2022-11-16T02:09:48.933Z,6.43
2022-11-16T02:12:46.323Z,5.88
2022-11-16T02:15:29.275Z,6.75
2022-11-16T02:18:21.024Z,7.22
2022-11-16T02:20:58.660Z,6.90
2022-11-16T02:23:52.553Z,6.55
2022-11-16T02:26:38.634Z,6.75
2022-11-16T02:29:20.106Z,4.95
2022-11-16T02:32:09.727Z,8.20
2022-11-16T02:34:42.145Z,8.02
2022-11-16T02:37:11.725Z,7.45
2022-11-16T02:39:39.234Z,8.70
2022-11-16T02:42:12.710Z,7.03
2022-11-16T02:44:44.976Z,7.10
2022-11-16T02:47:18.301Z,5.03
2022-11-16T02:49:57.984Z,7.93
2022-11-16T02:52:26.203Z,6.03
2022-11-16T02:54:52.515Z,6.97
2022-11-16T02:57:32.796Z,8.27
2022-11-16T03:00:00.607Z,7.35
2022-11-16T03:03:10.039Z,9.52
2022-11-16T03:05:50.971Z,7.60
2022-11-16T03:08:29.727Z,7.65
2022-11-16T03:11:25.633Z,7.53
2022-11-16T03:14:01.060Z,7.60
2022-11-16T03:16:34.862Z,7.60
2022-11-16T03:19:07.493Z,7.10
2022-11-16T03:21:46.932Z,8.68
2022-11-16T03:24:14.264Z,9.25
2022-11-16T03:27:01.663Z,7.13
2022-11-16T03:29:33.462Z,8.35
2022-11-16T03:32:18.998Z,9.25
2022-11-16T03:34:56.939Z,7.40
2022-11-16T03:37:26.252Z,8.90
2022-11-16T03:39:53.878Z,9.18
2022-11-16T03:42:23.726Z,9.30
2022-11-16T03:44:50.301Z,9.48
2022-11-16T03:47:16.681Z,9.50
2022-11-16T03:49:47.556Z,9.45
2022-11-16T03:52:17.570Z,10.45
2022-11-16T03:54:44.001Z,10.05
2022-11-16T03:57:18.016Z,10.52
2022-11-16T03:59:49.219Z,9.27
2022-11-16T04:02:15.725Z,10.20
2022-11-16T04:05:01.499Z,11.25
2022-11-16T04:07:46.544Z,9.82
2022-11-16T04:10:33.088Z,9.23
2022-11-16T04:13:19.330Z,10.95
2022-11-16T04:16:04.407Z,8.85
2022-11-16T04:18:49.246Z,11.05
2022-11-16T04:21:40.589Z,12.38
2022-11-16T04:24:18.596Z,10.77
2022-11-16T04:27:07.273Z,9.82
2022-11-16T04:29:34.779Z,10.88
2022-11-16T04:32:20.178Z,11.07
2022-11-16T04:35:05.792Z,12.38
2022-11-16T04:37:52.296Z,11.88
2022-11-16T04:40:29.242Z,12.27
2022-11-16T04:43:01.630Z,12.77
2022-11-16T04:45:51.027Z,12.82
2022-11-16T04:48:20.159Z,12.20
2022-11-16T04:50:48.307Z,11.95
2022-11-16T04:53:15.931Z,12.48
2022-11-16T04:55:46.277Z,14.65
2022-11-16T04:58:13.895Z,13.50
2022-11-16T05:00:40.330Z,13.85
2022-11-16T05:03:07.400Z,13.27
2022-11-16T05:05:33.747Z,12.52
2022-11-16T05:08:00.206Z,13.57
2022-11-16T05:10:28.960Z,14.80
2022-11-16T05:12:55.664Z,14.02
2022-11-16T05:15:23.131Z,14.40
2022-11-16T05:17:51.031Z,15.52
2022-11-16T05:20:39.468Z,14.95
2022-11-16T05:23:27.046Z,12.65
2022-11-16T05:25:54.587Z,13.45
2022-11-16T05:28:21.824Z,14.18
2022-11-16T05:30:48.162Z,13.63
2022-11-16T05:33:18.934Z,15.65
2022-11-16T05:35:45.484Z,14.50
2022-11-16T05:38:13.483Z,15.88
2022-11-16T05:40:44.057Z,15.05
2022-11-16T05:43:10.462Z,15.68
2022-11-16T05:45:43.162Z,13.85
2022-11-16T05:48:10.624Z,13.30
2022-11-16T05:50:42.314Z,15.10
2022-11-16T05:53:19.465Z,13.57
2022-11-16T05:55:47.349Z,12.93
2022-11-16T05:58:13.866Z,13.18
2022-11-16T06:00:40.250Z,14.50
2022-11-16T06:03:09.039Z,16.52
2022-11-16T06:05:40.256Z,14.38
2022-11-16T06:08:07.296Z,15.07
2022-11-16T06:10:33.605Z,17.23
2022-11-16T06:13:00.012Z,16.05
2022-11-16T06:15:26.594Z,18.10
2022-11-16T06:17:53.006Z,17.25
2022-11-16T06:20:20.987Z,18.13
2022-11-16T06:22:47.358Z,19.05
2022-11-16T06:25:14.171Z,17.02
2022-11-16T06:27:43.167Z,19.45
2022-11-16T06:30:12.224Z,17.58
2022-11-16T06:32:39.899Z,18.45
2022-11-16T06:35:07.358Z,20.42
2022-11-16T06:37:33.846Z,17.02
2022-11-16T06:40:00.247Z,18.88
2022-11-16T06:42:27.726Z,17.10
2022-11-16T06:44:54.842Z,18.10
2022-11-16T06:47:25.951Z,19.75
2022-11-16T06:49:52.746Z,19.08
2022-11-16T06:52:21.746Z,18.75
2022-11-16T06:54:48.102Z,16.73
2022-11-16T06:57:14.481Z,19.52
2022-11-16T06:59:40.953Z,17.25
2022-11-16T07:02:10.332Z,17.52
2022-11-16T07:04:37.863Z,17.23
2022-11-16T07:07:04.543Z,14.68
2022-11-16T07:09:32.821Z,15.07
2022-11-16T07:11:59.721Z,16.23
2022-11-16T07:14:27.397Z,14.85
2022-11-16T07:16:58.046Z,16.58
2022-11-16T07:19:26.209Z,17.13
2022-11-16T07:21:52.667Z,14.65
2022-11-16T07:24:19.034Z,18.30
2022-11-16T07:26:46.139Z,19.33
2022-11-16T07:29:17.229Z,17.55
2022-11-16T07:32:02.667Z,16.30
2022-11-16T07:34:47.415Z,14.07
2022-11-16T07:37:16.017Z,14.13
2022-11-16T07:39:43.512Z,14.25
2022-11-16T07:42:11.615Z,13.55
2022-11-16T07:45:00.135Z,15.63
2022-11-16T07:47:26.692Z,13.43
2022-11-16T07:49:53.158Z,12.45
2022-11-16T07:52:21.461Z,13.02
2022-11-16T07:54:59.309Z,12.43
2022-11-16T07:57:28.176Z,10.40
2022-11-16T07:59:56.131Z,11.30
2022-11-16T08:02:22.883Z,11.98
2022-11-16T08:04:50.563Z,10.68
2022-11-16T08:07:19.699Z,5.80
2022-11-16T08:09:51.585Z,5.90
2022-11-16T08:12:18.206Z,5.68
2022-11-16T08:14:44.596Z,4.05
2022-11-16T08:17:12.853Z,3.88
2022-11-16T08:19:40.121Z,5.35
2022-11-16T08:22:09.331Z,5.85
2022-11-16T08:24:35.839Z,4.35
2022-11-16T08:27:02.459Z,4.97
2022-11-16T08:29:29.303Z,6.00
2022-11-16T08:31:57.259Z,6.05
2022-11-16T08:34:23.783Z,8.00
2022-11-16T08:36:55.048Z,7.03
2022-11-16T08:39:26.955Z,7.85
2022-11-16T08:41:53.487Z,5.28
2022-11-16T08:44:19.931Z,4.03
2022-11-16T08:46:51.414Z,6.32
2022-11-16T08:49:28.749Z,2.47
2022-11-16T08:51:56.152Z,3.28
2022-11-16T08:54:22.833Z,8.95
2022-11-16T08:56:49.408Z,8.02
2022-11-16T08:59:17.343Z,2.72
2022-11-16T09:01:49.944Z,3.53
2022-11-16T09:04:18.543Z,2.45
2022-11-16T09:06:45.700Z,3.22
2022-11-16T09:09:12.049Z,4.35
2022-11-16T09:11:38.619Z,2.50
2022-11-16T09:14:04.971Z,2.05
2022-11-16T09:16:31.383Z,1.95
2022-11-16T09:18:57.765Z,4.13
2022-11-16T09:21:26.726Z,3.25
2022-11-16T09:23:54.610Z,12.15
2022-11-16T09:26:23.266Z,2.55
2022-11-16T09:29:04.178Z,4.35
2022-11-16T09:31:34.000Z,6.22
2022-11-16T09:34:00.352Z,2.65
2022-11-16T09:36:28.166Z,5.40
2022-11-16T09:39:25.847Z,4.00
2022-11-16T09:41:48.446Z,5.72
2022-11-16T09:44:53.610Z,7.53
2022-11-16T09:47:43.099Z,2.53
2022-11-16T09:50:22.319Z,4.30
2022-11-16T09:52:52.556Z,3.15
2022-11-16T09:55:29.152Z,6.72
2022-11-16T09:57:58.643Z,3.78
2022-11-16T10:00:25.645Z,2.30
2022-11-16T10:03:10.127Z,1.95
2022-11-16T10:05:52.907Z,7.03
2022-11-16T10:08:46.509Z,3.92
2022-11-16T10:14:03.943Z,5.15
2022-11-16T10:16:53.158Z,3.03
2022-11-16T10:19:35.862Z,6.85
2022-11-16T10:22:26.826Z,3.97
2022-11-16T10:25:00.597Z,2.88
2022-11-16T10:27:37.719Z,5.35
2022-11-16T10:30:12.319Z,3.17
2022-11-16T10:32:47.924Z,4.55
2022-11-16T10:35:25.409Z,7.82
2022-11-16T10:37:52.196Z,5.80
2022-11-16T10:40:35.749Z,6.13
2022-11-16T10:43:15.197Z,3.28
2022-11-16T10:46:05.350Z,6.63
2022-11-16T10:48:41.132Z,12.07
2022-11-16T10:51:09.278Z,2.45
2022-11-16T10:53:38.073Z,10.20
2022-11-16T10:56:21.106Z,3.53
2022-11-16T10:59:05.399Z,5.13
2022-11-16T11:01:43.497Z,4.82
2022-11-16T11:04:17.776Z,7.57
2022-11-16T11:06:46.287Z,5.93
2022-11-16T11:09:35.968Z,10.90
2022-11-16T11:15:10.813Z,10.02
2022-11-16T11:17:42.591Z,4.38
2022-11-16T11:20:22.602Z,6.82
2022-11-16T11:22:57.786Z,9.55
2022-11-16T11:25:36.501Z,4.53
2022-11-16T11:28:26.375Z,4.55
2022-11-16T11:31:25.514Z,8.05
2022-11-16T11:33:55.492Z,5.65
2022-11-16T11:36:25.059Z,5.93
2022-11-16T11:39:01.231Z,4.20
2022-11-16T11:41:36.792Z,5.20
2022-11-16T11:44:18.463Z,3.00
2022-11-16T11:50:21.990Z,7.18
2022-11-16T11:53:05.346Z,5.57
2022-11-16T11:58:00.361Z,5.07
2022-11-16T12:00:26.770Z,5.90
2022-11-16T12:03:14.982Z,9.23
2022-11-16T12:05:54.836Z,6.22
2022-11-16T12:08:49.237Z,4.30
2022-11-16T12:11:50.412Z,6.07
2022-11-16T12:14:35.329Z,6.88
2022-11-16T12:17:20.552Z,7.68
2022-11-16T12:20:25.679Z,7.90
2022-11-16T12:23:21.400Z,3.13
2022-11-16T12:26:02.737Z,9.10
2022-11-16T12:29:00.196Z,6.32
2022-11-16T12:31:53.372Z,4.88
2022-11-16T12:34:38.828Z,2.92
2022-11-16T12:37:21.059Z,4.68
2022-11-16T12:40:12.041Z,7.13
2022-11-16T12:43:00.735Z,8.52
2022-11-16T12:45:42.594Z,7.70
2022-11-16T12:48:42.678Z,5.88
2022-11-16T12:51:34.933Z,5.20
2022-11-16T12:54:18.603Z,12.40
2022-11-16T12:57:02.859Z,3.38
2022-11-16T12:59:44.899Z,9.20
2022-11-16T13:02:46.758Z,5.38
2022-11-16T13:05:20.707Z,6.60
2022-11-16T13:07:55.132Z,2.83
2022-11-16T13:10:28.003Z,5.30
2022-11-16T13:13:29.650Z,6.72
2022-11-16T13:15:48.003Z,4.60
2022-11-16T13:18:17.502Z,6.78
2022-11-16T13:21:00.415Z,7.82
2022-11-16T13:23:57.735Z,5.85
2022-11-16T13:26:44.547Z,3.75
2022-11-16T13:29:37.198Z,6.13
2022-11-16T13:32:34.789Z,3.65
2022-11-16T13:35:05.246Z,10.13
2022-11-16T13:37:37.835Z,4.97
2022-11-16T13:40:07.129Z,5.65
2022-11-16T13:42:44.815Z,6.03
2022-11-16T13:45:22.971Z,7.43
2022-11-16T13:47:55.492Z,6.13
2022-11-16T13:50:36.048Z,9.57
2022-11-16T13:56:14.889Z,6.93
2022-11-16T13:58:46.882Z,7.32
2022-11-16T14:01:17.280Z,5.40
2022-11-16T14:03:46.279Z,7.15
2022-11-16T14:06:18.847Z,7.78
2022-11-16T14:08:56.323Z,8.07
2022-11-16T14:11:33.444Z,3.35
2022-11-16T14:14:10.742Z,4.85
2022-11-16T14:16:50.701Z,3.85
2022-11-16T14:19:52.044Z,7.70
2022-11-16T14:22:35.778Z,7.63
2022-11-16T14:25:28.469Z,8.70
2022-11-16T14:28:08.908Z,10.07
2022-11-16T14:31:12.373Z,5.65
2022-11-16T14:33:39.127Z,3.22
2022-11-16T14:36:09.320Z,3.17
2022-11-16T14:38:40.091Z,4.88
2022-11-16T14:41:12.419Z,8.25
2022-11-16T14:43:42.538Z,4.22
2022-11-16T14:46:25.911Z,3.80
2022-11-16T14:51:31.520Z,2.47
2022-11-16T14:54:02.471Z,4.55
2022-11-16T14:56:28.848Z,7.75
2022-11-16T14:58:57.473Z,3.20
2022-11-16T15:01:27.881Z,5.93
2022-11-16T15:04:04.318Z,4.65
2022-11-16T15:06:43.390Z,4.60
2022-11-16T15:09:19.781Z,6.95
2022-11-16T15:12:08.100Z,4.40
2022-11-16T15:14:40.477Z,4.88
2022-11-16T15:17:07.712Z,2.45
2022-11-16T15:19:34.056Z,4.13
2022-11-16T15:22:02.308Z,3.60
2022-11-16T15:24:35.659Z,5.30
2022-11-16T15:27:11.308Z,5.47
2022-11-16T15:29:38.579Z,8.65
2022-11-16T15:32:06.843Z,10.48
2022-11-16T15:34:33.364Z,8.63
2022-11-16T15:36:59.922Z,7.55
2022-11-16T15:39:32.712Z,6.68
2022-11-16T15:42:03.697Z,6.82
2022-11-16T15:44:31.163Z,5.72
2022-11-16T15:46:58.744Z,5.35
2022-11-16T15:49:38.258Z,5.70
2022-11-16T15:52:05.451Z,4.43
2022-11-16T15:54:53.175Z,3.58
2022-11-16T15:57:21.550Z,5.20
2022-11-16T15:59:50.435Z,3.58
2022-11-16T16:02:20.227Z,5.63
2022-11-16T16:04:46.837Z,5.68
2022-11-16T16:07:37.437Z,6.18
2022-11-16T16:10:19.022Z,3.85
2022-11-16T16:12:59.800Z,4.10
2022-11-16T16:15:29.835Z,4.63
2022-11-16T16:17:58.019Z,6.45
2022-11-16T16:20:27.691Z,5.28
2022-11-16T16:23:08.504Z,5.95
2022-11-16T16:25:36.059Z,5.72
2022-11-16T16:28:03.280Z,4.35
2022-11-16T16:30:31.197Z,7.90
2022-11-16T16:32:57.739Z,8.68
2022-11-16T16:35:25.555Z,7.55
2022-11-16T16:37:59.087Z,6.40
2022-11-16T16:40:26.192Z,5.85
2022-11-16T16:42:53.165Z,5.72
2022-11-16T16:45:39.820Z,5.68
2022-11-16T16:48:06.757Z,6.93
2022-11-16T16:50:33.132Z,7.65
2022-11-16T16:52:59.483Z,4.47
2022-11-16T16:55:26.070Z,4.60
2022-11-16T16:57:57.918Z,2.72
2022-11-16T17:00:24.663Z,3.92
2022-11-16T17:02:51.407Z,7.63
2022-11-16T17:05:17.808Z,7.88
2022-11-16T17:07:44.253Z,3.28
2022-11-16T17:10:10.597Z,2.63
2022-11-16T17:12:36.906Z,4.07
2022-11-16T17:15:06.599Z,4.90
2022-11-16T17:17:32.960Z,5.80
2022-11-16T17:19:59.753Z,5.03
2022-11-16T17:22:26.106Z,4.80
2022-11-16T17:24:52.518Z,7.45
2022-11-16T17:27:19.105Z,6.80
2022-11-16T17:29:45.466Z,7.00
2022-11-16T17:32:11.795Z,7.57
2022-11-16T17:34:41.412Z,6.45
2022-11-16T17:37:07.906Z,6.38
2022-11-16T17:39:34.714Z,5.70
2022-11-16T17:42:01.145Z,5.35
2022-11-16T17:44:27.576Z,6.13
2022-11-16T17:46:53.971Z,9.73
2022-11-16T17:49:20.288Z,10.48
2022-11-16T17:51:47.053Z,11.38
2022-11-16T17:54:13.661Z,13.63
2022-11-16T17:56:40.152Z,23.10
2022-11-16T17:59:06.656Z,14.35
2022-11-16T18:01:33.084Z,12.65
2022-11-16T18:04:00.931Z,12.35
2022-11-16T18:06:27.474Z,11.85
2022-11-16T18:08:54.094Z,10.50
2022-11-16T18:11:25.888Z,10.65
2022-11-16T18:14:00.374Z,11.77
2022-11-16T18:16:29.750Z,9.20
2022-11-16T18:18:58.619Z,12.73
2022-11-16T18:21:25.745Z,9.73
2022-11-16T18:23:52.242Z,9.55
2022-11-16T18:26:21.086Z,6.75
2022-11-16T18:28:48.789Z,6.95
2022-11-16T18:31:17.725Z,7.95
2022-11-16T18:33:44.575Z,7.03
2022-11-16T18:36:12.638Z,8.70
2022-11-16T18:38:39.296Z,8.43
2022-11-16T18:41:14.952Z,5.68
2022-11-16T18:43:53.542Z,7.00
2022-11-16T18:46:25.678Z,4.97
2022-11-16T18:48:52.875Z,7.70
2022-11-16T18:51:20.785Z,5.72
2022-11-16T18:53:48.288Z,5.47
2022-11-16T18:56:18.619Z,8.02
2022-11-16T18:58:53.605Z,9.20
2022-11-16T19:01:25.871Z,6.68
2022-11-16T19:03:53.532Z,8.40
2022-11-16T19:06:21.326Z,10.77
2022-11-16T19:08:55.886Z,7.10
2022-11-16T19:11:28.537Z,8.20
2022-11-16T19:14:07.785Z,8.93
2022-11-16T19:16:34.716Z,7.80
2022-11-16T19:19:05.224Z,7.15
2022-11-16T19:21:57.507Z,8.73
2022-11-16T19:24:27.151Z,8.75
2022-11-16T19:26:53.725Z,8.05
2022-11-16T19:29:23.319Z,7.57
2022-11-16T19:31:55.804Z,9.48
2022-11-16T19:34:22.694Z,6.68
2022-11-16T19:36:57.332Z,8.60
2022-11-16T19:39:26.248Z,8.10
2022-11-16T19:41:53.080Z,8.25
2022-11-16T19:44:25.898Z,8.20
2022-11-16T19:46:56.183Z,11.80
2022-11-16T19:49:40.940Z,24.05
2022-11-16T19:52:07.956Z,11.88
2022-11-16T19:54:37.618Z,7.95
2022-11-16T19:57:12.743Z,6.38
2022-11-16T19:59:42.803Z,7.38
2022-11-16T20:02:18.195Z,6.03
2022-11-16T20:04:50.634Z,8.93
2022-11-16T20:07:24.491Z,4.00
2022-11-16T20:09:53.610Z,7.72
2022-11-16T20:12:42.214Z,5.75
2022-11-16T20:15:20.178Z,8.45
2022-11-16T20:18:36.489Z,6.22
2022-11-16T20:21:34.175Z,7.20
2022-11-16T20:24:15.775Z,11.77
2022-11-16T20:26:51.671Z,9.57
2022-11-16T20:29:20.312Z,9.27
2022-11-16T20:31:49.916Z,9.95
2022-11-16T20:34:22.373Z,5.78
2022-11-16T20:36:51.948Z,5.97
2022-11-16T20:39:31.685Z,6.95
2022-11-16T20:42:17.958Z,11.32
2022-11-16T20:44:49.111Z,6.60
2022-11-16T20:47:20.704Z,9.32
2022-11-16T20:50:00.643Z,7.43
2022-11-16T20:52:44.291Z,11.68
2022-11-16T20:55:23.805Z,9.05
2022-11-16T20:57:50.828Z,6.10
2022-11-16T21:00:26.611Z,11.98
2022-11-16T21:03:02.232Z,10.88
2022-11-16T21:05:43.310Z,8.07
2022-11-16T21:08:57.279Z,9.45
2022-11-16T21:11:31.700Z,8.07
2022-11-16T21:14:19.396Z,6.90
2022-11-16T21:16:45.802Z,12.38
2022-11-16T21:19:26.682Z,6.68
2022-11-16T21:21:53.244Z,11.32
2022-11-16T21:24:19.556Z,9.80
2022-11-16T21:26:45.992Z,6.72
2022-11-16T21:29:12.303Z,7.72
2022-11-16T21:31:38.869Z,9.77
2022-11-16T21:34:07.169Z,10.30
2022-11-16T21:36:36.714Z,10.05
2022-11-16T21:39:03.247Z,6.65
2022-11-16T21:41:29.601Z,8.27
2022-11-16T21:43:56.197Z,10.75
2022-11-16T21:46:26.710Z,6.55
2022-11-16T21:48:55.296Z,11.50
2022-11-16T21:51:24.735Z,8.40
2022-11-16T21:53:51.511Z,9.77
2022-11-16T21:56:21.783Z,6.28
2022-11-16T21:58:50.245Z,8.13
2022-11-16T22:01:16.692Z,9.82
2022-11-16T22:03:45.700Z,9.93
2022-11-16T22:06:35.136Z,12.60
2022-11-16T22:09:01.752Z,11.00
2022-11-16T22:11:28.435Z,16.98
2022-11-16T22:13:54.848Z,8.98
2022-11-16T22:16:23.224Z,7.88
2022-11-16T22:18:50.268Z,8.43
2022-11-16T22:21:17.017Z,7.90
2022-11-16T22:23:45.238Z,5.60
2022-11-16T22:26:30.981Z,9.45
2022-11-16T22:28:57.985Z,10.77
2022-11-16T22:31:24.372Z,6.32
2022-11-16T22:33:53.807Z,10.52
2022-11-16T22:36:20.414Z,7.45
2022-11-16T22:38:46.794Z,9.68
2022-11-16T22:41:13.171Z,8.50
2022-11-16T22:43:39.788Z,9.10
2022-11-16T22:46:06.313Z,8.70
2022-11-16T22:48:38.209Z,10.23
2022-11-16T22:51:17.821Z,8.27
2022-11-16T22:53:44.586Z,8.18
2022-11-16T22:56:11.374Z,8.95
2022-11-16T22:58:38.796Z,10.45
2022-11-16T23:01:07.780Z,8.60
2022-11-16T23:03:43.755Z,9.15
2022-11-16T23:06:17.924Z,5.30
2022-11-16T23:08:47.325Z,11.75
2022-11-16T23:11:45.487Z,8.20
2022-11-16T23:14:37.178Z,8.80
2022-11-16T23:17:13.980Z,11.23
2022-11-16T23:20:02.414Z,5.72
2022-11-16T23:23:03.509Z,5.20
2022-11-16T23:25:56.908Z,9.23
2022-11-16T23:28:26.471Z,7.00
2022-11-16T23:31:44.379Z,6.45
2022-11-16T23:34:12.084Z,8.57
2022-11-16T23:36:38.975Z,5.15
2022-11-16T23:39:09.405Z,9.27
2022-11-16T23:41:59.850Z,7.90
2022-11-16T23:44:26.658Z,7.18
2022-11-16T23:46:53.395Z,6.32
2022-11-16T23:49:20.376Z,7.35
2022-11-16T23:51:57.271Z,7.20
2022-11-16T23:54:29.574Z,6.20
2022-11-16T23:56:58.808Z,9.55
2022-11-16T23:59:37.517Z,6.93
